EDW752X LSZH-LICA
Flight info
| Callsign | EDW752X |
|---|---|
| Flight time | 1h 28m |
| Altitude | 35000 |
| Route | DEGES Y170 ARGAX DCT RESIA DCT ATPED DCT ERDON DCT EVINO/N0359F190 M620 ARBUM |
| Aircraft | A320/M-SDE2E3FGHIJ1RWXY/LB1 |
Departure
| Time | 2026-04-30 13:36 |
|---|---|
| Airport | Zürich Airport (LSZH) |
Arrival
| Time | 2026-04-30 15:05 |
|---|---|
| Airport | Lamezia Terme Sant'Eufemia International Airport (LICA) |
| Time | Latitude | Longitude | Altitude | Speed | Heading |
|---|---|---|---|---|---|
| 2026-04-30 13:04 | 47.45166 | 8.55803 | 1397 ft | 0 kts | 186° |
| 2026-04-30 13:28 | 47.45211 | 8.55814 | 1404 ft | 4 kts | 194° |
| 2026-04-30 13:28 | 47.45255 | 8.55848 | 1406 ft | 4 kts | 258° |
| 2026-04-30 13:28 | 47.45256 | 8.55863 | 1405 ft | 1 kts | 275° |
| 2026-04-30 13:29 | 47.45256 | 8.55864 | 1405 ft | 0 kts | 275° |
| 2026-04-30 13:31 | 47.45256 | 8.55861 | 1405 ft | 3 kts | 275° |
| 2026-04-30 13:31 | 47.45335 | 8.55392 | 1406 ft | 13 kts | 298° |
| 2026-04-30 13:32 | 47.45393 | 8.55224 | 1407 ft | 17 kts | 293° |
| 2026-04-30 13:32 | 47.45505 | 8.54774 | 1404 ft | 21 kts | 288° |
| 2026-04-30 13:33 | 47.45600 | 8.54339 | 1398 ft | 19 kts | 290° |
| 2026-04-30 13:33 | 47.45683 | 8.53956 | 1399 ft | 19 kts | 288° |
| 2026-04-30 13:34 | 47.45741 | 8.53776 | 1399 ft | 20 kts | 321° |
| 2026-04-30 13:34 | 47.45885 | 8.53882 | 1396 ft | 0 kts | 82° |
| 2026-04-30 13:35 | 47.45886 | 8.53900 | 1396 ft | 11 kts | 85° |
| 2026-04-30 13:36 | 47.45774 | 8.55587 | 1402 ft | 142 kts | 98° |
| 2026-04-30 13:36 | 47.45608 | 8.57147 | 1740 ft | 156 kts | 90° |
| 2026-04-30 13:36 | 47.45385 | 8.60314 | 2946 ft | 163 kts | 92° |
| 2026-04-30 13:37 | 47.45274 | 8.62096 | 3166 ft | 185 kts | 92° |
| 2026-04-30 13:37 | 47.45353 | 8.66218 | 3842 ft | 223 kts | 80° |
| 2026-04-30 13:38 | 47.45890 | 8.71083 | 5140 ft | 249 kts | 81° |
| 2026-04-30 13:38 | 47.46178 | 8.73659 | 5932 ft | 258 kts | 81° |
| 2026-04-30 13:38 | 47.46669 | 8.79096 | 7514 ft | 273 kts | 86° |
| 2026-04-30 13:39 | 47.46423 | 8.84692 | 9249 ft | 279 kts | 103° |
| 2026-04-30 13:39 | 47.45543 | 8.90390 | 10661 ft | 297 kts | 102° |
| 2026-04-30 13:40 | 47.45094 | 8.93499 | 10949 ft | 321 kts | 101° |
| 2026-04-30 13:40 | 47.44626 | 8.96786 | 11482 ft | 331 kts | 101° |
| 2026-04-30 13:40 | 47.44149 | 9.00149 | 12039 ft | 337 kts | 101° |
| 2026-04-30 13:40 | 47.43665 | 9.03520 | 12201 ft | 336 kts | 101° |
| 2026-04-30 13:41 | 47.43175 | 9.06915 | 12457 ft | 340 kts | 100° |
| 2026-04-30 13:41 | 47.42682 | 9.10331 | 13297 ft | 341 kts | 101° |
| 2026-04-30 13:41 | 47.42095 | 9.13738 | 14061 ft | 346 kts | 108° |
| 2026-04-30 13:41 | 47.40924 | 9.16875 | 14708 ft | 354 kts | 125° |
| 2026-04-30 13:42 | 47.39145 | 9.19446 | 15334 ft | 363 kts | 142° |
| 2026-04-30 13:42 | 47.36920 | 9.21182 | 15952 ft | 372 kts | 159° |
| 2026-04-30 13:42 | 47.31763 | 9.22746 | 17190 ft | 382 kts | 167° |
| 2026-04-30 13:43 | 47.29132 | 9.23440 | 17786 ft | 386 kts | 167° |
| 2026-04-30 13:43 | 47.26474 | 9.24141 | 18393 ft | 390 kts | 167° |
| 2026-04-30 13:43 | 47.23782 | 9.24850 | 18901 ft | 394 kts | 168° |
| 2026-04-30 13:43 | 47.21076 | 9.25563 | 19453 ft | 397 kts | 167° |
| 2026-04-30 13:44 | 47.18345 | 9.26283 | 19991 ft | 400 kts | 167° |
| 2026-04-30 13:44 | 47.15584 | 9.27013 | 20535 ft | 404 kts | 167° |
| 2026-04-30 13:44 | 47.12835 | 9.27740 | 21027 ft | 407 kts | 167° |
| 2026-04-30 13:44 | 47.10037 | 9.28479 | 21544 ft | 411 kts | 167° |
| 2026-04-30 13:45 | 47.04633 | 9.31179 | 22568 ft | 411 kts | 147° |
| 2026-04-30 13:45 | 47.02255 | 9.33496 | 23072 ft | 410 kts | 137° |
| 2026-04-30 13:45 | 47.00111 | 9.36271 | 23559 ft | 411 kts | 134° |
| 2026-04-30 13:46 | 46.97977 | 9.39099 | 24019 ft | 416 kts | 134° |
| 2026-04-30 13:46 | 46.95847 | 9.41908 | 24473 ft | 417 kts | 134° |
| 2026-04-30 13:46 | 46.93681 | 9.44758 | 24927 ft | 419 kts | 134° |
| 2026-04-30 13:46 | 46.91509 | 9.47611 | 25335 ft | 420 kts | 134° |
| 2026-04-30 13:47 | 46.89322 | 9.50474 | 25742 ft | 422 kts | 133° |
| 2026-04-30 13:47 | 46.87121 | 9.53352 | 26141 ft | 424 kts | 133° |
| 2026-04-30 13:47 | 46.84915 | 9.56237 | 26530 ft | 426 kts | 133° |
| 2026-04-30 13:47 | 46.82697 | 9.59134 | 26931 ft | 427 kts | 133° |
| 2026-04-30 13:48 | 46.80473 | 9.62039 | 27324 ft | 429 kts | 133° |
| 2026-04-30 13:48 | 46.78244 | 9.64952 | 27694 ft | 431 kts | 133° |
| 2026-04-30 13:48 | 46.76030 | 9.67846 | 28072 ft | 432 kts | 133° |
| 2026-04-30 13:48 | 46.73783 | 9.70777 | 28451 ft | 434 kts | 133° |
| 2026-04-30 13:49 | 46.71526 | 9.73714 | 28773 ft | 436 kts | 133° |
| 2026-04-30 13:49 | 46.69250 | 9.76670 | 29114 ft | 437 kts | 133° |
| 2026-04-30 13:49 | 46.66973 | 9.79623 | 29466 ft | 439 kts | 133° |
| 2026-04-30 13:49 | 46.64690 | 9.82590 | 29792 ft | 440 kts | 133° |
| 2026-04-30 13:50 | 46.62396 | 9.85570 | 30083 ft | 441 kts | 133° |
| 2026-04-30 13:50 | 46.57820 | 9.91489 | 30556 ft | 445 kts | 133° |
| 2026-04-30 13:50 | 46.55492 | 9.94493 | 30773 ft | 448 kts | 133° |
| 2026-04-30 13:51 | 46.53150 | 9.97507 | 30982 ft | 450 kts | 133° |
| 2026-04-30 13:51 | 46.51587 | 9.99511 | 31115 ft | 452 kts | 133° |
| 2026-04-30 13:51 | 46.49212 | 10.02551 | 31323 ft | 455 kts | 134° |
| 2026-04-30 13:51 | 46.46826 | 10.05591 | 31565 ft | 456 kts | 134° |
| 2026-04-30 13:52 | 46.44403 | 10.08587 | 31827 ft | 457 kts | 135° |
| 2026-04-30 13:52 | 46.41947 | 10.11537 | 32079 ft | 459 kts | 136° |
| 2026-04-30 13:52 | 46.39497 | 10.14429 | 32317 ft | 460 kts | 136° |
| 2026-04-30 13:52 | 46.37003 | 10.17360 | 32560 ft | 461 kts | 137° |
| 2026-04-30 13:53 | 46.34504 | 10.20309 | 32807 ft | 462 kts | 137° |
| 2026-04-30 13:53 | 46.32012 | 10.23271 | 33022 ft | 464 kts | 136° |
| 2026-04-30 13:53 | 46.29520 | 10.26245 | 33262 ft | 465 kts | 136° |
| 2026-04-30 13:53 | 46.27020 | 10.29234 | 33509 ft | 466 kts | 137° |
| 2026-04-30 13:54 | 46.24514 | 10.32227 | 33739 ft | 467 kts | 137° |
| 2026-04-30 13:54 | 46.22038 | 10.35180 | 33979 ft | 468 kts | 137° |
| 2026-04-30 13:54 | 46.19516 | 10.38178 | 34226 ft | 469 kts | 137° |
| 2026-04-30 13:54 | 46.16993 | 10.41166 | 34441 ft | 470 kts | 137° |
| 2026-04-30 13:55 | 46.14386 | 10.44036 | 34670 ft | 472 kts | 143° |
| 2026-04-30 13:55 | 46.11646 | 10.46680 | 34886 ft | 473 kts | 143° |
| 2026-04-30 13:55 | 46.08911 | 10.49321 | 35096 ft | 473 kts | 143° |
| 2026-04-30 13:55 | 46.06207 | 10.51930 | 35243 ft | 473 kts | 143° |
| 2026-04-30 13:56 | 46.00755 | 10.57184 | 35279 ft | 470 kts | 144° |
| 2026-04-30 13:56 | 45.95317 | 10.62412 | 35286 ft | 470 kts | 144° |
| 2026-04-30 13:57 | 45.89875 | 10.67628 | 35290 ft | 470 kts | 144° |
| 2026-04-30 13:57 | 45.84423 | 10.72841 | 35291 ft | 471 kts | 144° |
| 2026-04-30 13:58 | 45.76277 | 10.80618 | 35279 ft | 471 kts | 144° |
| 2026-04-30 13:59 | 45.70807 | 10.85815 | 35277 ft | 471 kts | 144° |
| 2026-04-30 13:59 | 45.65328 | 10.91001 | 35278 ft | 471 kts | 145° |
| 2026-04-30 14:00 | 45.59877 | 10.96142 | 35265 ft | 472 kts | 145° |
| 2026-04-30 14:00 | 45.51633 | 11.03930 | 35255 ft | 473 kts | 145° |
| 2026-04-30 14:01 | 45.46160 | 11.09091 | 35257 ft | 473 kts | 145° |
| 2026-04-30 14:01 | 45.40638 | 11.14269 | 35274 ft | 474 kts | 145° |
| 2026-04-30 14:02 | 45.35149 | 11.19409 | 35290 ft | 475 kts | 145° |
| 2026-04-30 14:02 | 45.29625 | 11.24575 | 35285 ft | 475 kts | 146° |
| 2026-04-30 14:03 | 45.24094 | 11.29735 | 35288 ft | 475 kts | 146° |
| 2026-04-30 14:03 | 45.18540 | 11.34890 | 35292 ft | 476 kts | 146° |
| 2026-04-30 14:04 | 45.13027 | 11.39990 | 35291 ft | 476 kts | 146° |
| 2026-04-30 14:04 | 45.07470 | 11.45121 | 35285 ft | 476 kts | 146° |
| 2026-04-30 14:05 | 45.01922 | 11.50244 | 35264 ft | 476 kts | 146° |
| 2026-04-30 14:05 | 44.98294 | 11.53597 | 35268 ft | 477 kts | 146° |
| 2026-04-30 14:06 | 44.90287 | 11.60958 | 35272 ft | 477 kts | 147° |
| 2026-04-30 14:07 | 44.81874 | 11.68654 | 35273 ft | 477 kts | 147° |
| 2026-04-30 14:08 | 44.73506 | 11.76286 | 35276 ft | 478 kts | 147° |
| 2026-04-30 14:08 | 44.65114 | 11.83921 | 35279 ft | 479 kts | 148° |
| 2026-04-30 14:09 | 44.59551 | 11.88962 | 35285 ft | 479 kts | 148° |
| 2026-04-30 14:10 | 44.51120 | 11.96595 | 35280 ft | 481 kts | 148° |
| 2026-04-30 14:10 | 44.45517 | 12.01647 | 35281 ft | 481 kts | 148° |
| 2026-04-30 14:11 | 44.39883 | 12.06707 | 35274 ft | 481 kts | 149° |
| 2026-04-30 14:11 | 44.34245 | 12.11761 | 35267 ft | 482 kts | 149° |
| 2026-04-30 14:12 | 44.28674 | 12.16742 | 35265 ft | 483 kts | 149° |
| 2026-04-30 14:12 | 44.23004 | 12.21805 | 35286 ft | 483 kts | 149° |
| 2026-04-30 14:13 | 44.17372 | 12.26830 | 35286 ft | 484 kts | 149° |
| 2026-04-30 14:13 | 44.11689 | 12.31885 | 35282 ft | 485 kts | 149° |
| 2026-04-30 14:14 | 44.05989 | 12.36936 | 35280 ft | 486 kts | 149° |
| 2026-04-30 14:14 | 44.00273 | 12.41996 | 35278 ft | 487 kts | 149° |
| 2026-04-30 14:15 | 43.94544 | 12.47052 | 35280 ft | 487 kts | 150° |
| 2026-04-30 14:15 | 43.88846 | 12.52076 | 35276 ft | 488 kts | 150° |
| 2026-04-30 14:16 | 43.83090 | 12.57125 | 35271 ft | 488 kts | 150° |
| 2026-04-30 14:16 | 43.77382 | 12.62134 | 35262 ft | 489 kts | 150° |
| 2026-04-30 14:17 | 43.71616 | 12.67165 | 35246 ft | 489 kts | 150° |
| 2026-04-30 14:17 | 43.65854 | 12.72181 | 35231 ft | 489 kts | 150° |
| 2026-04-30 14:18 | 43.60133 | 12.77176 | 35225 ft | 489 kts | 150° |
| 2026-04-30 14:18 | 43.51490 | 12.84697 | 35214 ft | 490 kts | 150° |
| 2026-04-30 14:19 | 43.42816 | 12.92204 | 35208 ft | 490 kts | 151° |
| 2026-04-30 14:20 | 43.37024 | 12.97200 | 35208 ft | 491 kts | 151° |
| 2026-04-30 14:20 | 43.28305 | 13.04492 | 35195 ft | 488 kts | 158° |
| 2026-04-30 14:21 | 43.22188 | 13.08624 | 35191 ft | 488 kts | 158° |
| 2026-04-30 14:22 | 43.13043 | 13.14797 | 35185 ft | 489 kts | 158° |
| 2026-04-30 14:22 | 43.03894 | 13.20975 | 35193 ft | 490 kts | 158° |
| 2026-04-30 14:23 | 42.91618 | 13.29211 | 35187 ft | 491 kts | 159° |
| 2026-04-30 14:24 | 42.82431 | 13.35344 | 35183 ft | 492 kts | 159° |
| 2026-04-30 14:25 | 42.70117 | 13.43556 | 35179 ft | 492 kts | 159° |
| 2026-04-30 14:26 | 42.60863 | 13.49703 | 35181 ft | 493 kts | 159° |
| 2026-04-30 14:27 | 42.51645 | 13.55787 | 35180 ft | 493 kts | 159° |
| 2026-04-30 14:27 | 42.45461 | 13.59862 | 35178 ft | 493 kts | 159° |
| 2026-04-30 14:28 | 42.36195 | 13.65953 | 35186 ft | 493 kts | 159° |
| 2026-04-30 14:28 | 42.30061 | 13.69976 | 35183 ft | 492 kts | 159° |
| 2026-04-30 14:29 | 42.18745 | 13.77379 | 35181 ft | 492 kts | 159° |
| 2026-04-30 14:31 | 42.02390 | 13.88011 | 35166 ft | 493 kts | 159° |
| 2026-04-30 14:31 | 41.93163 | 13.93998 | 35154 ft | 492 kts | 160° |
| 2026-04-30 14:32 | 41.84922 | 13.99309 | 35155 ft | 492 kts | 160° |
| 2026-04-30 14:33 | 41.78738 | 14.03283 | 35151 ft | 492 kts | 160° |
| 2026-04-30 14:33 | 41.69458 | 14.09242 | 35141 ft | 493 kts | 160° |
| 2026-04-30 14:34 | 41.63265 | 14.13216 | 35138 ft | 493 kts | 160° |
| 2026-04-30 14:34 | 41.57112 | 14.17147 | 35133 ft | 493 kts | 160° |
| 2026-04-30 14:35 | 41.47804 | 14.23078 | 35127 ft | 493 kts | 160° |
| 2026-04-30 14:36 | 41.41610 | 14.27018 | 35123 ft | 493 kts | 160° |
| 2026-04-30 14:36 | 41.35454 | 14.30926 | 35108 ft | 492 kts | 160° |
| 2026-04-30 14:37 | 41.29259 | 14.34846 | 35102 ft | 492 kts | 160° |
| 2026-04-30 14:37 | 41.23063 | 14.38757 | 35102 ft | 492 kts | 160° |
| 2026-04-30 14:38 | 41.16867 | 14.42657 | 35102 ft | 493 kts | 160° |
| 2026-04-30 14:38 | 41.10655 | 14.46565 | 35105 ft | 493 kts | 160° |
| 2026-04-30 14:39 | 41.04496 | 14.50433 | 35100 ft | 493 kts | 160° |
| 2026-04-30 14:39 | 40.98290 | 14.54323 | 35105 ft | 492 kts | 160° |
| 2026-04-30 14:40 | 40.88981 | 14.60137 | 35103 ft | 493 kts | 160° |
| 2026-04-30 14:40 | 40.82772 | 14.64010 | 35101 ft | 493 kts | 160° |
| 2026-04-30 14:41 | 40.76563 | 14.67872 | 35086 ft | 493 kts | 160° |
| 2026-04-30 14:41 | 40.70387 | 14.71695 | 35085 ft | 493 kts | 160° |
| 2026-04-30 14:42 | 40.64158 | 14.75553 | 35076 ft | 493 kts | 160° |
| 2026-04-30 14:42 | 40.57972 | 14.79381 | 34982 ft | 493 kts | 160° |
| 2026-04-30 14:43 | 40.54867 | 14.81306 | 34736 ft | 493 kts | 160° |
| 2026-04-30 14:43 | 40.51755 | 14.83229 | 34496 ft | 493 kts | 160° |
| 2026-04-30 14:43 | 40.48637 | 14.85144 | 34255 ft | 494 kts | 160° |
| 2026-04-30 14:43 | 40.45518 | 14.87054 | 34010 ft | 494 kts | 160° |
| 2026-04-30 14:44 | 40.42393 | 14.88968 | 33735 ft | 495 kts | 160° |
| 2026-04-30 14:44 | 40.39265 | 14.90885 | 33456 ft | 494 kts | 160° |
| 2026-04-30 14:44 | 40.36162 | 14.92787 | 32925 ft | 491 kts | 160° |
| 2026-04-30 14:44 | 40.33074 | 14.94682 | 32276 ft | 488 kts | 160° |
| 2026-04-30 14:45 | 40.30048 | 14.96541 | 31644 ft | 485 kts | 160° |
| 2026-04-30 14:45 | 40.26999 | 14.98413 | 31014 ft | 483 kts | 160° |
| 2026-04-30 14:45 | 40.23968 | 15.00265 | 30393 ft | 480 kts | 160° |
| 2026-04-30 14:45 | 40.20943 | 15.02108 | 29709 ft | 477 kts | 160° |
| 2026-04-30 14:46 | 40.17940 | 15.03934 | 29115 ft | 471 kts | 160° |
| 2026-04-30 14:46 | 40.14978 | 15.05736 | 28501 ft | 467 kts | 160° |
| 2026-04-30 14:46 | 40.12044 | 15.07525 | 27918 ft | 463 kts | 160° |
| 2026-04-30 14:46 | 40.09140 | 15.09293 | 27337 ft | 458 kts | 160° |
| 2026-04-30 14:47 | 40.06256 | 15.11046 | 26781 ft | 454 kts | 160° |
| 2026-04-30 14:47 | 40.03439 | 15.12755 | 26238 ft | 450 kts | 160° |
| 2026-04-30 14:47 | 40.00612 | 15.14464 | 25710 ft | 446 kts | 160° |
| 2026-04-30 14:47 | 39.97811 | 15.16157 | 25194 ft | 442 kts | 160° |
| 2026-04-30 14:48 | 39.95032 | 15.17835 | 24685 ft | 438 kts | 160° |
| 2026-04-30 14:48 | 39.92271 | 15.19501 | 24173 ft | 435 kts | 160° |
| 2026-04-30 14:48 | 39.89531 | 15.21160 | 23644 ft | 433 kts | 160° |
| 2026-04-30 14:48 | 39.86804 | 15.22811 | 23074 ft | 430 kts | 160° |
| 2026-04-30 14:49 | 39.84105 | 15.24443 | 22549 ft | 426 kts | 160° |
| 2026-04-30 14:49 | 39.81416 | 15.26065 | 22023 ft | 423 kts | 160° |
| 2026-04-30 14:49 | 39.78778 | 15.27652 | 21505 ft | 421 kts | 159° |
| 2026-04-30 14:49 | 39.76125 | 15.29246 | 20964 ft | 419 kts | 159° |
| 2026-04-30 14:50 | 39.70974 | 15.32670 | 20038 ft | 415 kts | 148° |
| 2026-04-30 14:50 | 39.68703 | 15.35031 | 19539 ft | 416 kts | 142° |
| 2026-04-30 14:51 | 39.64355 | 15.39892 | 18691 ft | 407 kts | 142° |
| 2026-04-30 14:51 | 39.62205 | 15.42290 | 18195 ft | 405 kts | 142° |
| 2026-04-30 14:51 | 39.57974 | 15.46987 | 17207 ft | 399 kts | 141° |
| 2026-04-30 14:52 | 39.55873 | 15.49318 | 16740 ft | 396 kts | 141° |
| 2026-04-30 14:52 | 39.51722 | 15.53924 | 15832 ft | 389 kts | 141° |
| 2026-04-30 14:52 | 39.49672 | 15.56197 | 15396 ft | 386 kts | 141° |
| 2026-04-30 14:53 | 39.45621 | 15.60691 | 14524 ft | 380 kts | 141° |
| 2026-04-30 14:53 | 39.43615 | 15.62907 | 14116 ft | 377 kts | 141° |
| 2026-04-30 14:54 | 39.39643 | 15.67268 | 13198 ft | 372 kts | 141° |
| 2026-04-30 14:54 | 39.35735 | 15.71568 | 12248 ft | 366 kts | 141° |
| 2026-04-30 14:55 | 39.31909 | 15.75790 | 11311 ft | 360 kts | 141° |
| 2026-04-30 14:55 | 39.30012 | 15.77883 | 10852 ft | 357 kts | 141° |
| 2026-04-30 14:55 | 39.26320 | 15.81941 | 10449 ft | 335 kts | 142° |
| 2026-04-30 14:56 | 39.22880 | 15.85707 | 10128 ft | 315 kts | 142° |
| 2026-04-30 14:56 | 39.19325 | 15.88833 | 9424 ft | 304 kts | 161° |
| 2026-04-30 14:57 | 39.17346 | 15.89625 | 9031 ft | 300 kts | 168° |
| 2026-04-30 14:57 | 39.13346 | 15.91071 | 8244 ft | 296 kts | 167° |
| 2026-04-30 14:58 | 39.09410 | 15.92499 | 7452 ft | 291 kts | 167° |
| 2026-04-30 14:58 | 39.07473 | 15.93200 | 6784 ft | 289 kts | 167° |
| 2026-04-30 14:58 | 39.03636 | 15.94591 | 5574 ft | 276 kts | 165° |
| 2026-04-30 14:59 | 39.00196 | 15.96150 | 4885 ft | 248 kts | 160° |
| 2026-04-30 15:00 | 38.95689 | 15.98395 | 3970 ft | 219 kts | 160° |
| 2026-04-30 15:00 | 38.93466 | 16.00596 | 3438 ft | 195 kts | 117° |
| 2026-04-30 15:01 | 38.92905 | 16.03791 | 2941 ft | 175 kts | 98° |
| 2026-04-30 15:01 | 38.92789 | 16.04803 | 2791 ft | 171 kts | 98° |
| 2026-04-30 15:01 | 38.92418 | 16.08025 | 2324 ft | 145 kts | 98° |
| 2026-04-30 15:02 | 38.92272 | 16.09293 | 2122 ft | 142 kts | 98° |
| 2026-04-30 15:02 | 38.92130 | 16.10539 | 1934 ft | 140 kts | 98° |
| 2026-04-30 15:03 | 38.91704 | 16.14205 | 1364 ft | 138 kts | 98° |
| 2026-04-30 15:03 | 38.91421 | 16.16624 | 1001 ft | 136 kts | 98° |
| 2026-04-30 15:04 | 38.91143 | 16.19012 | 661 ft | 133 kts | 97° |
| 2026-04-30 15:04 | 38.90737 | 16.22503 | 135 ft | 129 kts | 96° |
| 2026-04-30 15:05 | 38.90526 | 16.24441 | 45 ft | 38 kts | 98° |
| 2026-04-30 15:06 | 38.90547 | 16.24975 | 46 ft | 6 kts | 56° |
| 2026-04-30 15:06 | 38.90654 | 16.25015 | 45 ft | 11 kts | 319° |
| 2026-04-30 15:07 | 38.90748 | 16.24890 | 45 ft | 11 kts | 306° |
| 2026-04-30 15:07 | 38.90769 | 16.24783 | 42 ft | 0 kts | 274° |
| 2026-04-30 15:08 | 38.90778 | 16.24697 | 45 ft | 12 kts | 278° |
| 2026-04-30 15:08 | 38.90846 | 16.24586 | 45 ft | 0 kts | 8° |
| 2026-04-30 15:09 | 38.90848 | 16.24587 | 45 ft | 3 kts | 18° |
| 2026-04-30 15:09 | 38.90853 | 16.24589 | 45 ft | 0 kts | 14° |